Time;durP1;ratioP1;P1;durP2;ratioP2;P2;SDS_P1;SDS_P2;PMS_P1;PMS_P2;Temp;Humidity;BMP_temperature;BMP_pressure;BME280_temperature;BME280_humidity;BME280_pressure;Samples;Min_cycle;Max_cycle;Signal;HPM_P1;HPM_P2
2023/01/16 08:00:53;;;;;;;2.33;1.60;;;-1.60;99.90;;;;;;5133511;27;20270;-77
2023/01/16 08:06:26;;;;;;;2.27;1.50;;;-1.40;99.90;;;;;;5133671;27;20276;-77
2023/01/16 08:10:14;;;;;;;2.53;1.47;;;-1.20;99.90;;;;;;5134343;27;20287;-78
2023/01/16 08:12:39;;;;;;;3.00;1.80;;;-1.10;99.90;;;;;;5131513;28;20506;-77
2023/01/16 08:15:06;;;;;;;3.30;1.77;;;-0.90;99.90;;;;;;5132602;27;20171;-78
2023/01/16 08:17:31;;;;;;;2.33;2.13;;;-0.80;99.90;;;;;;5130804;28;20175;-78
2023/01/16 08:19:57;;;;;;;1.93;1.30;;;-0.60;99.90;;;;;;5131877;27;20474;-77
2023/01/16 08:22:22;;;;;;;2.33;1.80;;;-0.30;99.90;;;;;;5132646;27;20171;-77
2023/01/16 08:24:48;;;;;;;1.53;1.40;;;0.40;99.90;;;;;;5131420;28;20231;-77
2023/01/16 08:27:14;;;;;;;2.00;1.80;;;1.20;99.90;;;;;;5131495;28;20212;-78
2023/01/16 08:29:39;;;;;;;1.73;1.60;;;1.70;99.90;;;;;;5133371;28;20207;-79
2023/01/16 08:32:05;;;;;;;2.20;1.80;;;2.10;99.90;;;;;;5143261;27;20181;-78
2023/01/16 08:34:31;;;;;;;2.20;1.67;;;2.40;99.90;;;;;;5143962;27;20171;-78
2023/01/16 08:36:56;;;;;;;1.60;1.50;;;2.30;99.90;;;;;;5145224;27;20167;-79
2023/01/16 08:39:25;;;;;;;2.57;1.90;;;2.10;99.90;;;;;;5144426;28;20230;-79
2023/01/16 08:53:03;;;;;;;6.17;2.97;;;1.20;99.90;;;;;;5152275;28;20408;-78
2023/01/16 08:55:29;;;;;;;7.97;3.37;;;1.10;99.90;;;;;;5151622;27;20409;-79
2023/01/16 08:57:58;;;;;;;3.03;2.27;;;0.90;99.90;;;;;;5151617;28;20485;-79
2023/01/16 09:00:24;;;;;;;3.77;2.50;;;0.80;99.90;;;;;;5151250;28;20308;-79
2023/01/16 09:02:50;;;;;;;3.50;1.70;;;0.70;99.90;;;;;;5150730;28;20878;-79
2023/01/16 09:05:16;;;;;;;6.23;2.77;;;0.60;99.90;;;;;;5140445;27;20439;-79
2023/01/16 09:07:42;;;;;;;5.17;3.03;;;0.70;99.90;;;;;;5141109;27;20182;-79
2023/01/16 09:10:08;;;;;;;3.40;2.10;;;1.10;99.90;;;;;;5140411;28;20215;-79
2023/01/16 09:15:20;;;;;;;16.53;10.80;;;1.20;99.90;;;;;;5127389;27;20412;-79
2023/01/16 09:17:45;;;;;;;10.83;7.13;;;1.20;99.90;;;;;;5149552;27;20412;-78
2023/01/16 09:20:11;;;;;;;5.77;4.53;;;1.00;99.90;;;;;;5142947;27;20179;-78
2023/01/16 09:22:37;;;;;;;6.43;4.70;;;0.90;99.90;;;;;;5135423;28;20183;-78
2023/01/16 09:25:02;;;;;;;3.43;2.90;;;1.10;99.90;;;;;;5136193;28;20179;-78
2023/01/16 09:27:28;;;;;;;4.63;3.30;;;1.70;99.90;;;;;;5135499;28;20187;-79
2023/01/16 09:29:54;;;;;;;5.80;3.53;;;2.00;99.90;;;;;;5136441;28;20211;-78
2023/01/16 09:32:19;;;;;;;5.43;3.40;;;2.60;99.90;;;;;;5134286;28;20252;-78
2023/01/16 09:34:45;;;;;;;6.30;4.07;;;3.30;99.90;;;;;;5134333;28;20183;-78
2023/01/16 09:37:11;;;;;;;4.63;2.57;;;3.40;99.90;;;;;;5129171;28;20179;-78
2023/01/16 09:39:37;;;;;;;5.03;3.10;;;3.40;99.90;;;;;;5129961;28;20191;-78
2023/01/16 09:45:19;;;;;;;5.27;3.10;;;3.50;99.90;;;;;;5136584;28;20207;-78
2023/01/16 09:47:50;;;;;;;3.97;2.47;;;3.60;99.90;;;;;;5135427;28;20168;-78
2023/01/16 09:50:39;;;;;;;4.80;2.83;;;3.40;99.90;;;;;;5134380;28;20199;-78
2023/01/16 09:59:13;;;;;;;5.93;3.40;;;3.20;99.90;;;;;;5126579;28;20588;-79
2023/01/16 10:01:49;;;;;;;4.43;2.53;;;3.70;99.90;;;;;;5120499;28;20183;-79
2023/01/16 10:04:21;;;;;;;5.70;2.67;;;4.40;99.90;;;;;;5132522;28;20181;-79
2023/01/16 10:07:09;;;;;;;2.60;1.80;;;4.80;99.90;;;;;;5133006;28;20174;-79
2023/01/16 10:09:34;;;;;;;2.00;1.30;;;4.70;99.90;;;;;;5132320;28;20706;-79
2023/01/16 10:12:07;;;;;;;2.20;1.70;;;4.40;99.90;;;;;;5131665;28;20189;-79
2023/01/16 10:14:51;;;;;;;11.37;5.13;;;4.40;99.90;;;;;;5133944;28;20181;-79
2023/01/16 10:17:44;;;;;;;7.33;3.50;;;4.40;99.90;;;;;;5135624;27;20177;-79
2023/01/16 10:20:28;;;;;;;8.30;3.83;;;4.30;99.90;;;;;;5136177;28;20189;-79
2023/01/16 10:23:23;;;;;;;4.00;1.97;;;4.20;99.90;;;;;;5136654;28;20179;-79
2023/01/16 10:26:06;;;;;;;3.93;1.83;;;4.10;99.90;;;;;;5123659;28;20200;-79
2023/01/16 10:29:01;;;;;;;4.97;1.80;;;3.80;99.90;;;;;;5134001;28;20235;-79
2023/01/16 10:31:38;;;;;;;3.07;1.77;;;4.10;99.90;;;;;;5133553;28;20223;-79
2023/01/16 10:34:20;;;;;;;4.23;1.63;;;4.70;99.90;;;;;;5134203;28;20181;-79
2023/01/16 10:36:49;;;;;;;6.73;2.00;;;4.70;99.90;;;;;;5134486;28;20579;-80
2023/01/16 10:39:19;;;;;;;3.80;2.13;;;4.70;99.90;;;;;;5133779;28;20230;-80
2023/01/16 10:50:21;;;;;;;3.53;1.43;;;7.00;99.90;;;;;;5133404;28;20275;-79
2023/01/16 10:52:48;;;;;;;2.73;1.40;;;7.00;99.90;;;;;;5132868;28;20177;-79
2023/01/16 10:55:16;;;;;;;8.40;1.67;;;7.00;99.90;;;;;;5132791;28;20175;-80
2023/01/16 10:57:55;;;;;;;2.03;1.47;;;6.90;99.90;;;;;;5134009;28;20178;-79
2023/01/16 11:00:29;;;;;;;5.53;1.40;;;7.00;99.10;;;;;;5132460;28;20179;-79
2023/01/16 11:03:02;;;;;;;3.00;1.60;;;7.30;99.30;;;;;;5132208;28;20409;-80
2023/01/16 11:05:34;;;;;;;2.00;1.40;;;7.40;99.80;;;;;;5125008;28;20176;-80
2023/01/16 11:08:10;;;;;;;4.83;1.37;;;7.70;97.90;;;;;;5118782;28;20211;-79
2023/01/16 11:10:36;;;;;;;1.50;1.30;;;7.90;96.40;;;;;;5118316;28;20270;-80
2023/01/16 11:18:50;;;;;;;1.67;1.20;;;7.20;95.70;;;;;;5119789;28;20206;-79
2023/01/16 11:21:29;;;;;;;9.50;5.23;;;6.70;96.20;;;;;;5119629;28;20191;-79
2023/01/16 11:23:57;;;;;;;6.53;4.37;;;6.20;96.90;;;;;;5119482;28;20183;-79
2023/01/16 11:26:24;;;;;;;2.70;1.80;;;6.00;98.30;;;;;;5118775;28;20223;-79
2023/01/16 11:28:49;;;;;;;3.53;1.40;;;5.70;98.40;;;;;;5118453;28;20283;-79
2023/01/16 11:31:22;;;;;;;3.53;1.77;;;5.60;99.10;;;;;;5120194;28;20698;-80
2023/01/16 11:34:00;;;;;;;2.10;1.47;;;5.40;98.10;;;;;;5119585;28;20166;-79
2023/01/16 11:36:30;;;;;;;2.43;1.60;;;5.40;97.80;;;;;;5119562;28;20758;-80
2023/01/16 11:38:56;;;;;;;3.60;1.53;;;5.40;97.70;;;;;;5120114;28;20197;-79
2023/01/16 11:41:36;;;;;;;2.10;1.37;;;5.40;97.40;;;;;;5119416;28;20175;-79
2023/01/16 11:47:11;;;;;;;1.40;0.80;;;5.30;98.20;;;;;;5119675;28;20189;-79
2023/01/16 11:49:46;;;;;;;2.97;1.17;;;5.30;96.60;;;;;;5116653;28;20207;-79
2023/01/16 11:52:29;;;;;;;1.57;0.90;;;5.10;97.30;;;;;;5115619;28;20177;-79
2023/01/16 11:55:00;;;;;;;1.90;0.83;;;5.00;97.20;;;;;;5115585;28;20177;-79
2023/01/16 11:57:35;;;;;;;0.70;0.70;;;4.90;97.30;;;;;;5116247;28;20200;-79
2023/01/16 12:00:42;;;;;;;3.37;2.10;;;4.70;97.10;;;;;;5116305;28;20221;-79
2023/01/16 12:03:37;;;;;;;2.57;2.33;;;4.60;96.80;;;;;;5114285;28;20180;-78
2023/01/16 12:06:15;;;;;;;4.30;2.80;;;4.60;96.60;;;;;;5114857;28;20183;-78
2023/01/16 12:09:19;;;;;;;1.97;1.70;;;4.60;96.90;;;;;;5115627;28;20211;-79
2023/01/16 12:15:30;;;;;;;2.60;1.60;;;4.50;95.70;;;;;;5122022;28;20202;-79
2023/01/16 12:18:02;;;;;;;6.07;2.13;;;4.60;96.30;;;;;;5131152;28;20176;-79
2023/01/16 12:20:39;;;;;;;4.40;3.10;;;4.60;96.60;;;;;;5132619;28;20192;-78
2023/01/16 12:23:47;;;;;;;6.20;3.10;;;4.70;97.30;;;;;;5133469;28;20176;-78
2023/01/16 12:26:36;;;;;;;1.80;1.50;;;4.80;95.80;;;;;;5134258;28;20179;-78
2023/01/16 12:29:08;;;;;;;2.00;1.60;;;4.70;94.20;;;;;;5113969;28;20224;-79
2023/01/16 12:31:41;;;;;;;2.50;1.60;;;4.60;94.40;;;;;;5134565;28;20232;-78
2023/01/16 12:34:44;;;;;;;5.13;3.20;;;4.40;93.50;;;;;;5134395;28;20191;-78
2023/01/16 12:37:09;;;;;;;2.20;1.90;;;4.40;94.40;;;;;;5133752;28;20434;-79
2023/01/16 12:39:42;;;;;;;2.10;1.87;;;4.20;95.10;;;;;;5133216;28;20195;-79
2023/01/16 13:40:28;;;;;;;3.90;2.03;;;3.50;97.70;;;;;;5136997;27;20285;-79
2023/01/16 13:48:59;;;;;;;2.53;2.30;;;;;;;;;;5135156;27;20756;-80
2023/01/16 13:56:26;;;;;;;3.43;2.70;;;3.40;97.80;;;;;;5135211;27;20262;-80
2023/01/16 14:28:57;;;;;;;3.27;2.50;;;3.10;99.90;;;;;;5135073;27;20760;-79
2023/01/16 14:33:57;;;;;;;2.70;1.97;;;3.20;99.90;;;;;;5134334;27;20622;-78
2023/01/16 14:38:31;;;;;;;2.37;2.07;;;2.30;99.80;;;;;;5135738;27;20616;-79
2023/01/16 14:56:31;;;;;;;8.90;4.80;;;3.00;99.90;;;;;;5134330;27;20762;-79
